Time;durP1;ratioP1;P1;durP2;ratioP2;P2;SDS_P1;SDS_P2;PMS_P1;PMS_P2;Temp;Humidity;BMP_temperature;BMP_pressure;BME280_temperature;BME280_humidity;BME280_pressure;Samples;Min_cycle;Max_cycle;Signal;HPM_P1;HPM_P2
2022/10/24 00:01:44;;;;;;;16.27;8.70;;;;;;;;;;5044901;28;20392;-67
2022/10/24 00:04:10;;;;;;;17.20;8.30;;;;;;;;;;5053949;28;20435;-67
2022/10/24 00:06:37;;;;;;;15.60;7.97;;;;;;;;;;5053799;28;20070;-65
2022/10/24 00:09:04;;;;;;;16.85;7.90;;;;;;;;;;5058101;28;21946;-66
2022/10/24 00:11:31;;;;;;;15.10;8.32;;;;;;;;;;5028755;28;20112;-67
2022/10/24 00:13:58;;;;;;;13.07;7.70;;;;;;;;;;5051161;28;20032;-66
2022/10/24 00:16:25;;;;;;;12.57;7.78;;;;;;;;;;5055184;28;20085;-65
2022/10/24 00:18:52;;;;;;;13.90;8.48;;;;;;;;;;5051517;28;20136;-66
2022/10/24 00:21:19;;;;;;;14.75;8.48;;;;;;;;;;5054455;28;20040;-67
2022/10/24 00:23:45;;;;;;;18.65;8.63;;;;;;;;;;5052246;28;20116;-67
2022/10/24 00:26:12;;;;;;;17.77;9.15;;;;;;;;;;5046852;28;20040;-67
2022/10/24 00:28:41;;;;;;;15.85;8.85;;;;;;;;;;5042905;28;21461;-65
2022/10/24 00:31:08;;;;;;;18.80;9.48;;;;;;;;;;5048635;28;20639;-65
2022/10/24 00:33:35;;;;;;;21.05;8.95;;;;;;;;;;5050199;28;20100;-65
2022/10/24 00:36:01;;;;;;;17.73;10.20;;;;;;;;;;5048068;28;20029;-66
2022/10/24 00:38:28;;;;;;;15.75;8.85;;;;;;;;;;5046274;28;20040;-65
2022/10/24 00:40:55;;;;;;;17.15;9.30;;;;;;;;;;5046363;28;20076;-64
2022/10/24 00:43:23;;;;;;;16.92;8.52;;;;;;;;;;5045053;28;20045;-65
2022/10/24 00:45:50;;;;;;;16.60;8.73;;;;;;;;;;5045577;28;20581;-65
2022/10/24 00:48:35;;;;;;;24.75;12.00;;;;;;;;;;5046252;28;20502;-64
2022/10/24 00:51:06;;;;;;;18.13;10.32;;;;;;;;;;5032503;28;20116;-67
2022/10/24 00:53:35;;;;;;;18.92;9.85;;;;;;;;;;5056639;28;20040;-66
2022/10/24 00:56:03;;;;;;;19.95;10.70;;;;;;;;;;5044970;28;20386;-65
2022/10/24 00:58:30;;;;;;;17.60;10.30;;;;;;;;;;5045072;28;20715;-65
2022/10/24 01:00:57;;;;;;;17.67;9.88;;;;;;;;;;5046039;28;20032;-67
2022/10/24 01:03:24;;;;;;;19.33;11.27;;;;;;;;;;5045933;28;20087;-66
2022/10/24 01:05:59;;;;;;;21.70;10.88;;;;;;;;;;5046964;28;20194;-66
2022/10/24 01:08:29;;;;;;;26.70;13.52;;;;;;;;;;5045352;28;20480;-66
2022/10/24 01:11:08;;;;;;;22.92;12.65;;;;;;;;;;5046212;28;20635;-66
2022/10/24 01:13:38;;;;;;;23.00;13.00;;;;;;;;;;5045575;28;20052;-66
2022/10/24 01:16:11;;;;;;;19.77;11.13;;;;;;;;;;5045628;28;20040;-66
2022/10/24 01:18:37;;;;;;;18.60;10.32;;;;;;;;;;5059507;28;20071;-67
2022/10/24 01:21:23;;;;;;;21.77;11.23;;;;;;;;;;5045610;28;20557;-65
2022/10/24 01:24:13;;;;;;;18.77;9.57;;;;;;;;;;5044736;28;20489;-65
2022/10/24 01:26:55;;;;;;;19.98;11.25;;;;;;;;;;5051890;28;20071;-65
2022/10/24 01:29:39;;;;;;;22.65;12.52;;;;;;;;;;5047648;28;20068;-65
2022/10/24 01:32:21;;;;;;;20.05;11.95;;;;;;;;;;5047550;28;20033;-68
2022/10/24 01:35:00;;;;;;;23.77;13.88;;;;;;;;;;5045856;28;20061;-66
2022/10/24 01:37:35;;;;;;;28.67;13.15;;;;;;;;;;5045576;28;20045;-66
2022/10/24 01:40:09;;;;;;;25.98;13.23;;;;;;;;;;5047367;28;20048;-67
2022/10/24 01:42:35;;;;;;;;;;;;;;;;;;5047632;28;20586;-67
2022/10/24 01:45:03;;;;;;;25.73;11.80;;;;;;;;;;5052785;28;20440;-67
2022/10/24 01:47:33;;;;;;;21.30;13.75;;;;;;;;;;5045933;28;20444;-66
2022/10/24 01:50:02;;;;;;;24.90;13.10;;;;;;;;;;5045443;28;20049;-67
2022/10/24 01:52:30;;;;;;;25.38;13.38;;;;;;;;;;5047788;28;20048;-66
2022/10/24 01:54:56;;;;;;;30.48;13.15;;;;;;;;;;5059935;28;20025;-67
2022/10/24 01:57:27;;;;;;;25.65;12.95;;;;;;;;;;5046295;28;20149;-66
2022/10/24 01:59:54;;;;;;;30.75;14.02;;;;;;;;;;5048248;28;20052;-67
2022/10/24 02:02:27;;;;;;;25.42;14.00;;;;;;;;;;5045981;28;20187;-66
2022/10/24 02:05:00;;;;;;;27.88;13.20;;;;;;;;;;5045211;28;20561;-66
2022/10/24 02:07:28;;;;;;;20.80;11.30;;;;;;;;;;5045082;28;20528;-67
2022/10/24 02:09:58;;;;;;;25.52;14.20;;;;;;;;;;5046923;28;20044;-66
2022/10/24 02:12:26;;;;;;;32.35;14.02;;;;;;;;;;5045636;28;20032;-67
2022/10/24 02:15:02;;;;;;;30.17;13.82;;;;;;;;;;5044708;28;20043;-65
2022/10/24 02:17:29;;;;;;;26.20;13.57;;;;;;;;;;5045477;28;20040;-67
2022/10/24 02:19:56;;;;;;;25.33;13.68;;;;;;;;;;5047608;28;20045;-67
2022/10/24 02:22:26;;;;;;;27.10;13.50;;;;;;;;;;5045220;28;20033;-68
2022/10/24 02:25:00;;;;;;;23.25;13.10;;;;;;;;;;5043898;28;20037;-66
2022/10/24 02:27:38;;;;;;;26.60;14.77;;;;;;;;;;5042781;28;20045;-66
2022/10/24 02:30:10;;;;;;;27.90;14.27;;;;;;;;;;5048522;28;20099;-66
2022/10/24 02:32:42;;;;;;;27.00;13.57;;;;;;;;;;5056216;28;20921;-67
2022/10/24 02:35:11;;;;;;;25.40;14.68;;;;;;;;;;5055247;28;20032;-66
2022/10/24 02:37:42;;;;;;;24.35;13.82;;;;;;;;;;5045203;28;20051;-66
2022/10/24 02:40:09;;;;;;;21.02;12.52;;;;;;;;;;5046934;28;20102;-67
2022/10/24 02:42:37;;;;;;;27.83;13.68;;;;;;;;;;5043594;28;20524;-66
2022/10/24 02:45:04;;;;;;;28.98;13.90;;;;;;;;;;5044534;28;20043;-65
2022/10/24 02:47:31;;;;;;;26.35;13.48;;;;;;;;;;5044419;28;20237;-67
2022/10/24 02:49:58;;;;;;;28.52;13.65;;;;;;;;;;5047340;28;20110;-66
2022/10/24 02:52:24;;;;;;;27.92;13.43;;;;;;;;;;5045436;28;20064;-66
2022/10/24 02:54:51;;;;;;;29.52;13.93;;;;;;;;;;5044728;28;20159;-65
2022/10/24 02:57:20;;;;;;;30.70;14.38;;;;;;;;;;5045734;28;20039;-66
2022/10/24 02:59:47;;;;;;;28.25;14.35;;;;;;;;;;5045064;28;20409;-66
2022/10/24 03:02:13;;;;;;;27.85;14.40;;;;;;;;;;5046030;28;20963;-66
2022/10/24 03:04:40;;;;;;;27.48;13.85;;;;;;;;;;5046256;28;20049;-67
2022/10/24 03:07:07;;;;;;;24.17;13.80;;;;;;;;;;5044319;28;20424;-67
2022/10/24 03:09:34;;;;;;;25.63;13.48;;;;;;;;;;5044324;28;20076;-68
2022/10/24 03:12:01;;;;;;;24.77;13.05;;;;;;;;;;5046083;28;20048;-66
2022/10/24 03:14:27;;;;;;;24.75;13.70;;;;;;;;;;5047125;28;20045;-67
2022/10/24 03:16:54;;;;;;;21.90;11.52;;;;;;;;;;5064781;28;20071;-70
2022/10/24 03:19:21;;;;;;;22.25;11.65;;;;;;;;;;5048376;28;20123;-68
2022/10/24 03:21:48;;;;;;;20.20;11.85;;;;;;;;;;5045727;28;20424;-66
2022/10/24 03:24:14;;;;;;;20.48;11.50;;;;;;;;;;5031411;28;20493;-68
2022/10/24 03:26:41;;;;;;;23.05;11.20;;;;;;;;;;5028630;28;20529;-66
2022/10/24 03:29:07;;;;;;;18.05;10.45;;;;;;;;;;5028824;28;20057;-66
2022/10/24 03:31:35;;;;;;;19.25;10.98;;;;;;;;;;5028064;28;20336;-65
2022/10/24 03:34:01;;;;;;;19.17;10.20;;;;;;;;;;5033658;28;20068;-66
2022/10/24 03:36:28;;;;;;;19.75;10.63;;;;;;;;;;5028994;28;20043;-65
2022/10/24 03:38:55;;;;;;;18.05;10.13;;;;;;;;;;5042739;28;20033;-67
2022/10/24 03:41:21;;;;;;;18.13;9.85;;;;;;;;;;5048100;28;20242;-67
2022/10/24 03:43:48;;;;;;;19.23;10.63;;;;;;;;;;5048039;28;20037;-67
2022/10/24 03:46:14;;;;;;;20.27;10.52;;;;;;;;;;5047368;28;20079;-67
2022/10/24 03:48:42;;;;;;;18.27;9.35;;;;;;;;;;5048141;28;20080;-67
2022/10/24 03:51:09;;;;;;;18.88;10.18;;;;;;;;;;5047997;28;20045;-66
2022/10/24 03:53:36;;;;;;;18.23;9.23;;;;;;;;;;5047956;28;20166;-67
2022/10/24 03:56:02;;;;;;;17.35;9.73;;;;;;;;;;5049793;28;20111;-66
2022/10/24 03:58:29;;;;;;;20.35;9.07;;;;;;;;;;5046612;28;20044;-66
2022/10/24 04:00:57;;;;;;;14.65;8.15;;;;;;;;;;5046825;28;20083;-67
2022/10/24 04:03:25;;;;;;;16.65;8.60;;;;;;;;;;5048970;28;20071;-67
2022/10/24 04:05:52;;;;;;;16.15;8.63;;;;;;;;;;5045345;28;20162;-67
2022/10/24 04:08:18;;;;;;;16.88;9.85;;;;;;;;;;5046017;28;20678;-67
2022/10/24 04:10:45;;;;;;;16.08;7.95;;;;;;;;;;5046174;28;20059;-67
2022/10/24 04:13:12;;;;;;;14.77;8.07;;;;;;;;;;5046601;28;20186;-67
2022/10/24 04:15:38;;;;;;;16.65;8.00;;;;;;;;;;5046504;28;20041;-69
2022/10/24 04:18:07;;;;;;;13.05;7.95;;;;;;;;;;5052835;28;20044;-68
2022/10/24 04:20:34;;;;;;;13.23;7.97;;;;;;;;;;5046390;28;20120;-67
2022/10/24 04:23:01;;;;;;;11.88;7.50;;;;;;;;;;5047523;28;20033;-67
2022/10/24 04:25:27;;;;;;;15.50;7.82;;;;;;;;;;5046589;28;20047;-65
2022/10/24 04:27:54;;;;;;;15.55;8.10;;;;;;;;;;5048005;28;20543;-66
2022/10/24 04:30:20;;;;;;;13.27;6.80;;;;;;;;;;5045991;28;20076;-66
2022/10/24 04:32:47;;;;;;;17.20;8.32;;;;;;;;;;5048352;28;20041;-66
2022/10/24 04:35:13;;;;;;;13.45;7.63;;;;;;;;;;5046554;28;20041;-66
2022/10/24 04:37:40;;;;;;;14.50;7.85;;;;;;;;;;5047094;28;20040;-66
2022/10/24 04:40:07;;;;;;;13.40;8.00;;;;;;;;;;5046504;28;20033;-66
2022/10/24 04:42:34;;;;;;;14.40;7.45;;;;;;;;;;5047443;28;20044;-67
2022/10/24 04:45:00;;;;;;;13.73;7.57;;;;;;;;;;5046066;28;20032;-67
2022/10/24 04:47:27;;;;;;;14.25;7.47;;;;;;;;;;5046180;28;20355;-67
2022/10/24 04:49:53;;;;;;;15.25;7.63;;;;;;;;;;5049204;28;20076;-67
2022/10/24 04:52:20;;;;;;;14.60;8.43;;;;;;;;;;5046864;28;20039;-68
2022/10/24 04:54:47;;;;;;;15.68;7.47;;;;;;;;;;5045122;28;20097;-66
2022/10/24 04:57:13;;;;;;;13.73;7.68;;;;;;;;;;5048735;28;20473;-67
2022/10/24 04:59:40;;;;;;;13.18;7.60;;;;;;;;;;5052918;28;20041;-66
2022/10/24 05:02:06;;;;;;;14.30;7.25;;;;;;;;;;5046556;28;20043;-66
2022/10/24 05:04:33;;;;;;;12.82;7.05;;;;;;;;;;5045833;28;20037;-66
2022/10/24 05:07:00;;;;;;;12.07;7.03;;;;;;;;;;5046603;28;20178;-66
2022/10/24 05:09:27;;;;;;;12.88;6.90;;;;;;;;;;5046117;28;20037;-66
2022/10/24 05:11:56;;;;;;;16.27;7.10;;;;;;;;;;5047077;28;20067;-66
2022/10/24 05:14:24;;;;;;;14.43;6.47;;;;;;;;;;5044033;28;20127;-66
2022/10/24 05:16:50;;;;;;;13.57;6.93;;;;;;;;;;5046586;28;20082;-67
2022/10/24 05:19:18;;;;;;;11.90;6.63;;;;;;;;;;5045518;28;20409;-66
2022/10/24 05:21:45;;;;;;;11.77;6.55;;;;;;;;;;5046732;28;20044;-67
2022/10/24 05:24:13;;;;;;;12.15;6.68;;;;;;;;;;5045407;28;20164;-66
2022/10/24 05:26:39;;;;;;;11.02;6.43;;;;;;;;;;5045709;28;20041;-66
2022/10/24 05:29:06;;;;;;;13.60;6.82;;;;;;;;;;5047085;28;20057;-66
2022/10/24 05:31:33;;;;;;;12.55;6.80;;;;;;;;;;5045799;28;20068;-66
2022/10/24 05:33:59;;;;;;;15.18;7.00;;;;;;;;;;5046740;28;20044;-66
2022/10/24 05:36:26;;;;;;;12.25;7.10;;;;;;;;;;5046371;28;20036;-67
2022/10/24 05:38:52;;;;;;;13.20;7.47;;;;;;;;;;5046854;28;21895;-66
2022/10/24 05:41:19;;;;;;;13.13;7.20;;;;;;;;;;5046009;28;20040;-67
2022/10/24 05:43:45;;;;;;;14.13;7.38;;;;;;;;;;5046384;28;20040;-65
2022/10/24 05:46:12;;;;;;;18.23;8.70;;;;;;;;;;5047797;28;20033;-65
2022/10/24 05:48:39;;;;;;;14.23;7.30;;;;;;;;;;5048246;28;20674;-67
2022/10/24 05:51:05;;;;;;;12.85;7.05;;;;;;;;;;5049581;28;20327;-67
2022/10/24 05:53:32;;;;;;;12.88;7.18;;;;;;;;;;5048064;28;21638;-66
2022/10/24 05:55:58;;;;;;;15.65;6.70;;;;;;;;;;5046162;28;20117;-66
2022/10/24 05:58:26;;;;;;;14.90;7.65;;;;;;;;;;5046127;28;20029;-66
2022/10/24 06:00:53;;;;;;;14.93;7.50;;;;;;;;;;5045143;28;20048;-67
2022/10/24 06:03:19;;;;;;;13.23;6.78;;;;;;;;;;5045281;28;20489;-67
2022/10/24 06:05:46;;;;;;;13.10;6.93;;;;;;;;;;5044222;28;20412;-68
2022/10/24 06:08:12;;;;;;;13.73;7.28;;;;;;;;;;5045180;28;20033;-68
2022/10/24 06:10:39;;;;;;;12.15;6.43;;;;;;;;;;5046715;28;20088;-67
2022/10/24 06:13:06;;;;;;;12.02;6.80;;;;;;;;;;5052012;28;20611;-67
2022/10/24 06:15:32;;;;;;;12.60;7.25;;;;;;;;;;5045969;28;20033;-68
2022/10/24 06:18:00;;;;;;;12.35;6.90;;;;;;;;;;5046973;28;20036;-68
2022/10/24 06:20:26;;;;;;;12.23;6.63;;;;;;;;;;5044983;28;20045;-68
2022/10/24 06:22:53;;;;;;;13.40;6.90;;;;;;;;;;5045804;28;20054;-67
2022/10/24 06:25:19;;;;;;;11.38;6.55;;;;;;;;;;5043597;28;20576;-66
2022/10/24 06:27:47;;;;;;;11.30;6.75;;;;;;;;;;5046866;28;20522;-66
2022/10/24 06:30:13;;;;;;;12.52;6.70;;;;;;;;;;5046015;28;20044;-66
2022/10/24 06:32:40;;;;;;;11.82;6.57;;;;;;;;;;5046148;28;21979;-66
2022/10/24 06:35:07;;;;;;;13.95;6.82;;;;;;;;;;5044220;28;20037;-67
2022/10/24 06:37:35;;;;;;;11.15;6.43;;;;;;;;;;5045785;28;20110;-67
2022/10/24 06:40:01;;;;;;;13.05;7.10;;;;;;;;;;5047350;28;20064;-66
2022/10/24 06:42:28;;;;;;;11.68;6.53;;;;;;;;;;5045411;28;20834;-66
2022/10/24 06:44:54;;;;;;;10.68;5.90;;;;;;;;;;5045089;28;20053;-67
2022/10/24 06:47:21;;;;;;;16.48;6.88;;;;;;;;;;5046289;28;20482;-66
2022/10/24 06:49:48;;;;;;;20.02;6.93;;;;;;;;;;5049528;28;20045;-66
2022/10/24 06:52:14;;;;;;;14.13;7.63;;;;;;;;;;5049737;28;20044;-66
2022/10/24 06:54:42;;;;;;;12.73;6.68;;;;;;;;;;5048520;28;21799;-66
2022/10/24 06:57:09;;;;;;;12.90;7.03;;;;;;;;;;5049880;28;20056;-66
2022/10/24 06:59:35;;;;;;;13.05;6.80;;;;;;;;;;5049609;28;20032;-66
2022/10/24 07:02:02;;;;;;;16.27;7.57;;;;;;;;;;5049151;28;20540;-66
2022/10/24 07:04:29;;;;;;;12.18;6.78;;;;;;;;;;5048425;28;20044;-67
2022/10/24 07:06:55;;;;;;;11.10;6.28;;;;;;;;;;5050956;28;21471;-67
2022/10/24 07:09:22;;;;;;;13.60;6.93;;;;;;;;;;5048281;28;20051;-67
2022/10/24 07:11:48;;;;;;;11.18;6.25;;;;;;;;;;5045499;28;20029;-66
2022/10/24 07:14:15;;;;;;;12.20;7.22;;;;;;;;;;5047691;28;20036;-66
2022/10/24 07:16:42;;;;;;;12.85;6.55;;;;;;;;;;5047305;28;20085;-66
2022/10/24 07:19:08;;;;;;;11.40;6.70;;;;;;;;;;5049292;28;20047;-65
2022/10/24 07:21:35;;;;;;;16.45;6.70;;;;;;;;;;5047864;28;20036;-67
2022/10/24 07:24:02;;;;;;;13.25;7.07;;;;;;;;;;5047313;28;20387;-66
2022/10/24 07:26:29;;;;;;;11.93;6.30;;;;;;;;;;5048463;28;20094;-66
2022/10/24 07:28:59;;;;;;;13.02;6.65;;;;;;;;;;5048049;28;20072;-66
2022/10/24 07:31:27;;;;;;;12.13;6.88;;;;;;;;;;5046822;28;20036;-67
2022/10/24 07:33:53;;;;;;;9.65;5.65;;;;;;;;;;5047305;28;20076;-67
2022/10/24 07:36:21;;;;;;;12.70;6.43;;;;;;;;;;5047999;28;20402;-67
2022/10/24 07:38:48;;;;;;;13.32;6.72;;;;;;;;;;5048819;28;20024;-67
2022/10/24 07:41:15;;;;;;;11.93;6.38;;;;;;;;;;5049660;28;20132;-68
2022/10/24 07:43:42;;;;;;;14.20;7.18;;;;;;;;;;5048029;28;20053;-67
2022/10/24 07:46:09;;;;;;;13.70;7.07;;;;;;;;;;5049133;28;20090;-67
2022/10/24 07:48:36;;;;;;;12.05;6.63;;;;;;;;;;5047837;28;20049;-67
2022/10/24 07:51:07;;;;;;;13.55;6.65;;;;;;;;;;5050375;28;20832;-67
2022/10/24 07:53:34;;;;;;;11.43;6.72;;;;;;;;;;5050729;28;20072;-67
2022/10/24 07:56:00;;;;;;;11.88;7.03;;;;;;;;;;5049646;28;20032;-68
2022/10/24 07:58:27;;;;;;;13.45;7.82;;;;;;;;;;5050553;28;20377;-68
2022/10/24 08:00:54;;;;;;;11.70;6.75;;;;;;;;;;5048827;28;20036;-68
2022/10/24 08:03:20;;;;;;;12.60;6.38;;;;;;;;;;5047183;28;20044;-69
2022/10/24 08:05:47;;;;;;;12.60;6.93;;;;;;;;;;5048166;28;20141;-68
2022/10/24 08:08:14;;;;;;;13.50;7.28;;;;;;;;;;5048871;28;20025;-67
2022/10/24 08:10:40;;;;;;;14.52;7.15;;;;;;;;;;5048636;28;20135;-67
2022/10/24 08:13:07;;;;;;;10.93;6.70;;;;;;;;;;5048540;28;20041;-68
2022/10/24 08:15:33;;;;;;;13.75;6.97;;;;;;;;;;5046856;28;20051;-68
2022/10/24 08:18:00;;;;;;;15.40;7.55;;;;;;;;;;5047096;28;20045;-68
2022/10/24 08:20:27;;;;;;;13.07;6.85;;;;;;;;;;5046483;28;20493;-67
2022/10/24 08:22:53;;;;;;;15.32;7.05;;;;;;;;;;5048188;28;20064;-67
2022/10/24 08:25:20;;;;;;;12.82;6.90;;;;;;;;;;5048083;28;20048;-67
2022/10/24 08:27:46;;;;;;;11.23;7.05;;;;;;;;;;5047733;28;20040;-67
2022/10/24 08:30:13;;;;;;;14.60;7.10;;;;;;;;;;5047315;28;20666;-69
2022/10/24 08:32:40;;;;;;;10.68;6.30;;;;;;;;;;5047052;28;20052;-68
2022/10/24 08:35:07;;;;;;;11.93;6.82;;;;;;;;;;5046769;28;20056;-68
2022/10/24 08:37:37;;;;;;;14.48;7.38;;;;;;;;;;5045839;28;20036;-68
2022/10/24 08:40:08;;;;;;;13.10;6.65;;;;;;;;;;5046954;28;20036;-68
2022/10/24 08:42:35;;;;;;;15.13;6.82;;;;;;;;;;5046343;28;20086;-67
2022/10/24 08:45:02;;;;;;;12.98;6.93;;;;;;;;;;5047029;28;20024;-68
2022/10/24 08:47:40;;;;;;;12.05;6.50;;;;;;;;;;5046408;28;20126;-68
2022/10/24 08:50:29;;;;;;;13.60;6.78;;;;;;;;;;5046471;28;20111;-69
2022/10/24 08:52:59;;;;;;;14.10;6.63;;;;;;;;;;5047828;28;20106;-68
2022/10/24 08:55:46;;;;;;;10.32;6.15;;;;;;;;;;5046228;28;20151;-68
2022/10/24 08:58:17;;;;;;;13.57;6.75;;;;;;;;;;5045412;28;20785;-69
2022/10/24 09:00:45;;;;;;;12.85;6.70;;;;;;;;;;5047055;28;20552;-68
2022/10/24 09:03:30;;;;;;;10.13;6.03;;;;;;;;;;5047477;28;20040;-68
2022/10/24 09:06:00;;;;;;;11.13;5.97;;;;;;;;;;5047170;28;20121;-68
2022/10/24 09:08:26;;;;;;;13.93;6.68;;;;;;;;;;5046885;28;20128;-69
2022/10/24 09:10:57;;;;;;;14.95;6.93;;;;;;;;;;5044699;28;20053;-68
2022/10/24 09:13:26;;;;;;;13.60;7.35;;;;;;;;;;5045529;28;20040;-68
2022/10/24 09:15:53;;;;;;;17.35;7.30;;;;;;;;;;5046723;28;20405;-67
2022/10/24 09:18:31;;;;;;;11.45;6.25;;;;;;;;;;5045697;28;20568;-68
2022/10/24 09:20:58;;;;;;;13.07;6.38;;;;;;;;;;5046131;28;20037;-67
2022/10/24 09:23:25;;;;;;;10.73;5.75;;;;;;;;;;5045182;28;20179;-67
2022/10/24 09:25:53;;;;;;;13.07;6.80;;;;;;;;;;5046143;28;20493;-68
2022/10/24 09:28:19;;;;;;;10.70;6.07;;;;;;;;;;5045683;28;20083;-67
2022/10/24 09:30:46;;;;;;;11.68;5.55;;;;;;;;;;5045526;28;20059;-67
2022/10/24 09:33:28;;;;;;;10.23;5.72;;;;;;;;;;5045689;28;20041;-68
2022/10/24 09:35:56;;;;;;;12.63;6.50;;;;;;;;;;5045884;28;20037;-67
2022/10/24 09:38:24;;;;;;;14.82;7.28;;;;;;;;;;5045115;28;20052;-67
2022/10/24 09:40:52;;;;;;;14.13;6.03;;;;;;;;;;5046189;28;20045;-68
2022/10/24 09:43:31;;;;;;;13.27;6.78;;;;;;;;;;5042118;28;20055;-69
2022/10/24 09:46:08;;;;;;;13.68;7.10;;;;;;;;;;5045741;28;20132;-68
2022/10/24 09:48:47;;;;;;;15.43;7.05;;;;;;;;;;5045588;28;20063;-68
2022/10/24 09:51:18;;;;;;;15.68;7.53;;;;;;;;;;5046040;28;20044;-67
2022/10/24 09:53:58;;;;;;;12.80;6.60;;;;;;;;;;5041673;28;20493;-67
2022/10/24 09:56:32;;;;;;;16.23;6.38;;;;;;;;;;5045442;28;20049;-67
2022/10/24 09:59:16;;;;;;;11.63;6.30;;;;;;;;;;5046519;28;20037;-67
2022/10/24 10:01:44;;;;;;;11.25;6.57;;;;;;;;;;5045354;28;20106;-68
2022/10/24 10:04:16;;;;;;;11.80;6.40;;;;;;;;;;5045454;28;20064;-68
2022/10/24 10:06:44;;;;;;;12.57;7.13;;;;;;;;;;5046192;28;20045;-67
2022/10/24 10:09:14;;;;;;;16.50;7.05;;;;;;;;;;5046075;28;20053;-67
2022/10/24 10:11:41;;;;;;;10.13;5.88;;;;;;;;;;5045594;28;20036;-68
2022/10/24 10:14:20;;;;;;;16.35;7.22;;;;;;;;;;5044872;28;20033;-68
2022/10/24 10:16:57;;;;;;;13.77;7.50;;;;;;;;;;5046533;28;20036;-68
2022/10/24 10:19:24;;;;;;;13.80;6.72;;;;;;;;;;5045490;28;20033;-68
2022/10/24 10:21:54;;;;;;;12.52;6.60;;;;;;;;;;5047986;28;20143;-67
2022/10/24 10:24:26;;;;;;;15.63;6.90;;;;;;;;;;5048319;28;21055;-69
2022/10/24 10:26:52;;;;;;;10.55;6.28;;;;;;;;;;5048967;28;20043;-67
2022/10/24 10:29:19;;;;;;;17.67;6.88;;;;;;;;;;5050369;28;20525;-67
2022/10/24 10:31:47;;;;;;;14.77;6.72;;;;;;;;;;5045891;28;20043;-66
2022/10/24 10:34:37;;;;;;;11.70;6.50;;;;;;;;;;5049705;28;20040;-66
2022/10/24 10:37:22;;;;;;;11.73;6.60;;;;;;;;;;5042053;28;20036;-66
2022/10/24 10:40:01;;;;;;;11.20;6.20;;;;;;;;;;5049529;28;20037;-66
2022/10/24 10:42:46;;;;;;;13.10;6.55;;;;;;;;;;5048646;28;20036;-66
2022/10/24 10:45:21;;;;;;;14.30;7.22;;;;;;;;;;5049808;28;20954;-66
2022/10/24 10:48:06;;;;;;;13.15;6.55;;;;;;;;;;5041130;28;20128;-67
2022/10/24 10:50:47;;;;;;;16.73;6.43;;;;;;;;;;5048868;28;20076;-67
2022/10/24 10:53:32;;;;;;;14.43;6.47;;;;;;;;;;5049255;28;20041;-67
2022/10/24 10:56:21;;;;;;;12.52;6.50;;;;;;;;;;5050099;28;21465;-67
2022/10/24 10:58:53;;;;;;;11.18;6.13;;;;;;;;;;5048482;28;20145;-66
2022/10/24 11:01:20;;;;;;;11.00;5.80;;;;;;;;;;5047832;28;20045;-67
2022/10/24 11:03:54;;;;;;;12.23;6.45;;;;;;;;;;5049428;28;20078;-66
2022/10/24 11:06:34;;;;;;;18.90;7.35;;;;;;;;;;5048324;28;20040;-67
2022/10/24 11:09:13;;;;;;;12.60;6.75;;;;;;;;;;5049863;28;20033;-67
2022/10/24 11:11:44;;;;;;;12.82;6.70;;;;;;;;;;5048249;28;20036;-67
2022/10/24 11:14:26;;;;;;;14.52;6.88;;;;;;;;;;5048348;28;20060;-67
2022/10/24 11:16:55;;;;;;;10.35;6.28;;;;;;;;;;5047930;28;20486;-67
2022/10/24 11:19:25;;;;;;;20.55;6.25;;;;;;;;;;5048411;28;20040;-68
2022/10/24 11:21:52;;;;;;;10.27;6.70;;;;;;;;;;5047543;28;20049;-67
2022/10/24 11:24:22;;;;;;;13.93;6.60;;;;;;;;;;5049175;28;20028;-67
2022/10/24 11:27:09;;;;;;;14.65;7.13;;;;;;;;;;5047884;28;20041;-67
2022/10/24 11:29:52;;;;;;;14.77;7.68;;;;;;;;;;5048626;28;20057;-66
2022/10/24 11:32:23;;;;;;;13.70;7.50;;;;;;;;;;5047458;28;20101;-67
2022/10/24 11:34:56;;;;;;;19.25;8.35;;;;;;;;;;5028259;28;20037;-67
2022/10/24 11:37:30;;;;;;;13.25;7.75;;;;;;;;;;5027528;28;20076;-69
2022/10/24 11:40:03;;;;;;;17.92;7.38;;;;;;;;;;5030007;28;20045;-67
2022/10/24 11:42:30;;;;;;;15.80;8.50;;;;;;;;;;5028045;28;20084;-67
2022/10/24 11:45:09;;;;;;;17.08;8.13;;;;;;;;;;5028910;28;20049;-67
2022/10/24 11:47:45;;;;;;;14.77;7.57;;;;;;;;;;5029467;28;20086;-67
2022/10/24 11:50:20;;;;;;;13.10;7.30;;;;;;;;;;5029106;28;20063;-68
2022/10/24 11:52:48;;;;;;;15.40;8.15;;;;;;;;;;5027213;28;20037;-67
2022/10/24 11:55:19;;;;;;;19.17;8.32;;;;;;;;;;5028576;28;20056;-66
2022/10/24 11:57:49;;;;;;;14.85;8.55;;;;;;;;;;5027496;28;20057;-68
2022/10/24 12:00:24;;;;;;;17.98;8.25;;;;;;;;;;5027043;28;20124;-68
2022/10/24 12:03:02;;;;;;;14.48;8.20;;;;;;;;;;5055049;27;20032;-69
2022/10/24 12:05:33;;;;;;;14.40;7.70;;;;;;;;;;5053402;28;20624;-67
2022/10/24 12:08:17;;;;;;;19.10;8.45;;;;;;;;;;5048484;28;20067;-67
2022/10/24 12:10:58;;;;;;;17.60;8.35;;;;;;;;;;5046306;28;20080;-67
2022/10/24 12:13:37;;;;;;;15.77;7.90;;;;;;;;;;5048319;28;20147;-67
2022/10/24 12:16:03;;;;;;;15.18;8.68;;;;;;;;;;5048684;28;20075;-67
2022/10/24 12:18:35;;;;;;;16.77;8.77;;;;;;;;;;5047883;28;20367;-67
2022/10/24 12:21:04;;;;;;;17.02;8.50;;;;;;;;;;5053987;28;20075;-66
2022/10/24 12:23:31;;;;;;;16.75;7.68;;;;;;;;;;5047649;28;20037;-67
2022/10/24 12:26:17;;;;;;;18.35;9.10;;;;;;;;;;5047669;28;20540;-68
2022/10/24 12:28:53;;;;;;;18.17;9.30;;;;;;;;;;5047084;28;20052;-67
2022/10/24 12:31:21;;;;;;;17.98;8.13;;;;;;;;;;5047367;28;20497;-69
2022/10/24 12:34:07;;;;;;;15.60;8.07;;;;;;;;;;5047005;28;20059;-70
2022/10/24 12:36:52;;;;;;;15.40;9.10;;;;;;;;;;5046828;28;20036;-69
2022/10/24 12:39:29;;;;;;;18.20;9.05;;;;;;;;;;5048748;28;20086;-66
2022/10/24 12:41:57;;;;;;;18.25;8.95;;;;;;;;;;5045979;28;20063;-68
2022/10/24 12:44:33;;;;;;;15.88;8.88;;;;;;;;;;5048575;28;20594;-67
2022/10/24 12:47:01;;;;;;;15.55;8.80;;;;;;;;;;5047241;28;20460;-68
2022/10/24 12:49:27;;;;;;;15.18;7.85;;;;;;;;;;5045479;28;20079;-68
2022/10/24 12:51:54;;;;;;;16.20;9.07;;;;;;;;;;5046824;28;20037;-68
2022/10/24 12:54:39;;;;;;;18.23;9.07;;;;;;;;;;5047600;28;20123;-69
2022/10/24 12:57:07;;;;;;;19.08;8.63;;;;;;;;;;5045711;28;20509;-68
2022/10/24 12:59:49;;;;;;;19.02;8.73;;;;;;;;;;5046725;28;20037;-67
2022/10/24 13:02:16;;;;;;;19.95;9.25;;;;;;;;;;5045901;28;20041;-67
2022/10/24 13:04:46;;;;;;;15.93;8.80;;;;;;;;;;5047597;28;20448;-67
2022/10/24 13:07:15;;;;;;;14.60;8.63;;;;;;;;;;5046957;28;20037;-67
2022/10/24 13:09:45;;;;;;;18.00;8.90;;;;;;;;;;5043898;28;20658;-67
2022/10/24 13:12:11;;;;;;;20.70;9.23;;;;;;;;;;5042933;28;21294;-67
2022/10/24 13:14:44;;;;;;;18.05;8.38;;;;;;;;;;5048171;28;20578;-66
2022/10/24 13:17:20;;;;;;;20.65;9.18;;;;;;;;;;5045608;28;20425;-66
2022/10/24 13:19:46;;;;;;;17.48;8.48;;;;;;;;;;5046609;28;20052;-66
2022/10/24 13:22:29;;;;;;;17.58;8.95;;;;;;;;;;5047481;28;20037;-66
2022/10/24 13:24:56;;;;;;;15.93;8.00;;;;;;;;;;5046555;28;20110;-65
2022/10/24 13:27:30;;;;;;;16.70;8.25;;;;;;;;;;5046114;28;20033;-68
2022/10/24 13:29:59;;;;;;;18.23;7.72;;;;;;;;;;5048246;28;20049;-67
2022/10/24 13:32:35;;;;;;;18.00;8.85;;;;;;;;;;5044422;28;20385;-68
2022/10/24 13:35:02;;;;;;;16.25;7.72;;;;;;;;;;5045376;28;20043;-67
2022/10/24 13:37:31;;;;;;;15.32;7.63;;;;;;;;;;5046185;28;20493;-67
2022/10/24 13:40:01;;;;;;;16.88;7.78;;;;;;;;;;5046558;28;20143;-67
2022/10/24 13:42:35;;;;;;;16.55;7.57;;;;;;;;;;5044310;28;20036;-71
2022/10/24 13:45:07;;;;;;;23.67;8.23;;;;;;;;;;5045269;28;20093;-67
2022/10/24 13:47:36;;;;;;;15.15;7.60;;;;;;;;;;5046837;28;20440;-67
2022/10/24 13:50:13;;;;;;;17.52;7.85;;;;;;;;;;5048725;28;20147;-67
2022/10/24 13:52:43;;;;;;;18.67;7.43;;;;;;;;;;5052701;28;20067;-66
2022/10/24 13:55:20;;;;;;;15.73;7.80;;;;;;;;;;5053088;28;20065;-65
2022/10/24 13:57:52;;;;;;;16.02;7.85;;;;;;;;;;5047094;28;20462;-66
2022/10/24 14:00:30;;;;;;;13.95;7.38;;;;;;;;;;5047140;28;20143;-66
2022/10/24 14:02:58;;;;;;;15.93;8.55;;;;;;;;;;5044947;28;20044;-67
2022/10/24 14:05:30;;;;;;;17.20;7.72;;;;;;;;;;5045232;28;20055;-67
2022/10/24 14:07:57;;;;;;;18.55;7.97;;;;;;;;;;5045290;28;20065;-66
2022/10/24 14:10:24;;;;;;;19.20;8.40;;;;;;;;;;5045385;28;20060;-67
2022/10/24 14:12:55;;;;;;;21.25;9.23;;;;;;;;;;5046831;28;20039;-67
2022/10/24 14:15:24;;;;;;;17.77;8.70;;;;;;;;;;5045965;28;20044;-66
2022/10/24 14:18:17;;;;;;;17.48;8.60;;;;;;;;;;5046555;28;20046;-67
2022/10/24 14:20:50;;;;;;;16.25;8.45;;;;;;;;;;5042035;28;20045;-66
2022/10/24 14:23:37;;;;;;;15.02;8.95;;;;;;;;;;5047755;28;20041;-66
2022/10/24 14:26:05;;;;;;;17.00;8.98;;;;;;;;;;5025875;28;20163;-69
2022/10/24 14:28:55;;;;;;;41.38;15.20;;;;;;;;;;5026554;28;20535;-65
2022/10/24 14:31:26;;;;;;;22.85;9.07;;;;;;;;;;5026910;28;20399;-66
2022/10/24 14:33:54;;;;;;;19.77;8.75;;;;;;;;;;5025888;28;20654;-66
2022/10/24 14:36:25;;;;;;;12.65;7.80;;;;;;;;;;5026318;28;20513;-68
2022/10/24 14:38:55;;;;;;;18.38;9.13;;;;;;;;;;5026466;28;20522;-66
2022/10/24 14:41:32;;;;;;;20.38;8.10;;;;;;;;;;5026639;28;20632;-66
2022/10/24 14:43:59;;;;;;;22.02;9.10;;;;;;;;;;5027933;28;20037;-66
2022/10/24 14:46:36;;;;;;;19.58;8.82;;;;;;;;;;5025768;28;20561;-66